createdAt,value
2019-06-08T07:52:48.020Z,16.56
2019-06-08T07:55:19.970Z,16.34
2019-06-08T07:57:52.160Z,16.55
2019-06-08T08:00:22.980Z,16.69
2019-06-08T08:02:54.354Z,16.72
2019-06-08T08:05:25.168Z,17.19
2019-06-08T08:07:56.899Z,17.19
2019-06-08T08:10:27.895Z,17.12
2019-06-08T08:12:59.787Z,17.12
2019-06-08T08:15:30.583Z,16.97
2019-06-08T08:18:01.348Z,16.61
2019-06-08T08:20:32.128Z,16.61
2019-06-08T08:23:06.031Z,16.49
2019-06-08T08:25:37.903Z,16.90
2019-06-08T08:28:08.719Z,16.90
2019-06-08T08:30:39.510Z,16.76
2019-06-08T08:33:10.288Z,17.01
2019-06-08T08:35:41.060Z,16.93
2019-06-08T08:38:12.151Z,17.18
2019-06-08T08:40:42.949Z,17.16
2019-06-08T08:43:13.723Z,17.16
2019-06-08T08:45:44.590Z,17.06
2019-06-08T08:48:25.496Z,16.96
2019-06-08T08:50:48.425Z,17.03
2019-06-08T08:53:19.356Z,16.82
2019-06-08T08:55:50.902Z,16.82
2019-06-08T08:58:21.724Z,16.96
2019-06-08T09:00:54.109Z,17.19
2019-06-08T09:03:33.099Z,17.23
2019-06-08T09:06:01.381Z,17.55
2019-06-08T09:08:30.617Z,17.38
2019-06-08T09:11:03.552Z,17.38
2019-06-08T09:13:34.088Z,18.14
2019-06-08T09:16:07.767Z,18.14
2019-06-08T09:18:37.696Z,18.59
2019-06-08T09:21:08.672Z,18.38
2019-06-08T09:23:39.405Z,18.38
2019-06-08T09:26:13.088Z,17.91
2019-06-08T09:28:42.871Z,18.41
2019-06-08T09:31:13.633Z,18.85
2019-06-08T09:33:53.281Z,18.79
2019-06-08T09:36:17.723Z,19.02
2019-06-08T09:38:48.683Z,18.80
2019-06-08T09:41:19.437Z,18.54
2019-06-08T09:43:50.249Z,18.21
2019-06-08T09:46:21.040Z,18.80
2019-06-08T09:48:53.970Z,18.83
2019-06-08T09:51:24.488Z,19.18
2019-06-08T09:53:56.129Z,19.22
2019-06-08T09:56:28.427Z,18.40
2019-06-08T09:59:03.554Z,18.58
2019-06-08T10:01:32.077Z,18.32
2019-06-08T10:04:05.752Z,18.26
2019-06-08T10:06:37.777Z,18.56
2019-06-08T10:09:09.107Z,18.50
2019-06-08T10:11:40.020Z,18.45
2019-06-08T10:14:12.471Z,18.72
2019-06-08T10:16:43.473Z,18.89
2019-06-08T10:19:14.267Z,18.34
2019-06-08T10:21:45.041Z,18.82
2019-06-08T10:24:15.923Z,18.12
2019-06-08T10:26:47.763Z,18.38
2019-06-08T10:29:18.826Z,18.73
2019-06-08T10:31:49.608Z,18.62
2019-06-08T10:34:20.387Z,18.44
2019-06-08T10:36:51.152Z,19.05
2019-06-08T10:39:21.926Z,19.36
2019-06-08T10:41:52.712Z,19.72
2019-06-08T10:44:23.472Z,19.77
2019-06-08T10:46:54.256Z,19.21
2019-06-08T10:49:25.035Z,19.86
2019-06-08T10:51:58.996Z,19.77
2019-06-08T10:54:28.616Z,20.03
2019-06-08T10:57:01.837Z,19.66
2019-06-08T10:59:32.056Z,20.06
2019-06-08T11:02:06.208Z,20.17
2019-06-08T11:04:35.515Z,21.07
2019-06-08T11:07:13.059Z,21.33
2019-06-08T11:09:38.961Z,20.87
2019-06-08T11:12:14.579Z,20.86
2019-06-08T11:14:42.524Z,20.84
2019-06-08T11:17:13.289Z,21.19
2019-06-08T11:19:44.074Z,20.77
2019-06-08T11:22:15.434Z,21.18
2019-06-08T11:24:48.534Z,21.31
2019-06-08T11:27:19.534Z,20.51
2019-06-08T11:29:50.337Z,20.43
2019-06-08T11:32:21.180Z,21.00
2019-06-08T11:34:51.950Z,20.93
2019-06-08T11:37:22.742Z,20.97
2019-06-08T11:39:53.496Z,20.86
2019-06-08T11:42:26.244Z,20.24
2019-06-08T11:44:58.685Z,20.39
2019-06-08T11:47:31.025Z,20.72
2019-06-08T11:50:04.760Z,21.09
2019-06-08T11:52:38.253Z,21.04
2019-06-08T11:55:11.212Z,21.08
2019-06-08T11:57:41.936Z,21.14
2019-06-08T12:00:33.093Z,21.49
2019-06-08T12:03:03.893Z,21.95
2019-06-08T12:05:34.671Z,21.51
2019-06-08T12:08:06.372Z,21.73
2019-06-08T12:10:38.215Z,21.87
2019-06-08T12:13:12.812Z,22.29
2019-06-08T12:15:42.993Z,22.35
2019-06-08T12:18:14.171Z,21.99
2019-06-08T12:20:45.035Z,21.58
2019-06-08T12:23:15.800Z,21.93
2019-06-08T12:25:46.576Z,22.29
2019-06-08T12:28:17.891Z,22.48
2019-06-08T12:30:48.838Z,22.24
2019-06-08T12:33:22.740Z,22.75
2019-06-08T12:35:52.562Z,22.37
2019-06-08T12:38:23.527Z,22.90
2019-06-08T12:40:54.302Z,23.18
2019-06-08T12:43:25.069Z,23.10
2019-06-08T12:45:57.903Z,22.73
2019-06-08T12:48:28.772Z,23.21
2019-06-08T12:50:59.594Z,22.04
2019-06-08T12:53:30.370Z,22.95
2019-06-08T12:56:01.149Z,23.36
2019-06-08T12:58:31.914Z,22.98
2019-06-08T13:01:02.797Z,22.96
2019-06-08T13:03:33.575Z,23.38
2019-06-08T13:06:04.342Z,23.94
2019-06-08T13:08:35.311Z,23.89
2019-06-08T13:11:09.049Z,24.02
2019-06-08T13:13:38.754Z,23.41
2019-06-08T13:16:10.531Z,23.63
2019-06-08T13:18:41.361Z,23.85
2019-06-08T13:21:21.854Z,24.25
2019-06-08T13:23:44.824Z,23.57
2019-06-08T13:26:21.566Z,24.09
2019-06-08T13:28:48.283Z,23.54
2019-06-08T13:31:22.596Z,23.20
2019-06-08T13:33:51.742Z,23.05
2019-06-08T13:36:26.408Z,24.43
2019-06-08T13:38:55.518Z,24.36
2019-06-08T13:41:29.557Z,23.88
2019-06-08T13:43:58.985Z,23.50
2019-06-08T13:46:29.759Z,24.37
2019-06-08T13:49:00.540Z,25.06
2019-06-08T13:51:31.315Z,24.86
2019-06-08T13:54:02.404Z,24.56
2019-06-08T13:56:33.193Z,24.82
2019-06-08T13:59:03.958Z,25.09
2019-06-08T14:01:34.748Z,25.21
2019-06-08T14:04:05.540Z,24.43
2019-06-08T14:06:36.324Z,25.40
2019-06-08T14:09:08.285Z,24.96
2019-06-08T14:11:39.314Z,24.95
2019-06-08T14:14:10.150Z,25.50
2019-06-08T14:16:40.928Z,26.42
2019-06-08T14:19:11.701Z,26.10
2019-06-08T14:21:42.484Z,26.34
2019-06-08T14:24:13.293Z,27.33
2019-06-08T14:26:44.152Z,26.71
2019-06-08T14:29:14.917Z,26.77
2019-06-08T14:31:45.700Z,27.25
2019-06-08T14:34:18.646Z,26.79
2019-06-08T14:36:49.143Z,27.91
2019-06-08T14:39:20.597Z,28.41
2019-06-08T14:41:52.332Z,27.50
2019-06-08T14:44:24.070Z,27.81
2019-06-08T14:46:54.976Z,27.02
2019-06-08T14:49:30.709Z,26.14
2019-06-08T14:51:58.455Z,28.33
2019-06-08T14:54:34.787Z,28.63
2019-06-08T14:57:01.932Z,28.65
2019-06-08T14:59:32.703Z,28.34
2019-06-08T15:02:03.494Z,27.86
2019-06-08T15:04:36.921Z,27.61
2019-06-08T15:07:09.461Z,27.79
2019-06-08T15:09:39.624Z,27.76
2019-06-08T15:12:10.398Z,27.44
2019-06-08T15:14:41.177Z,26.93
2019-06-08T15:17:11.972Z,27.51
2019-06-08T15:19:42.759Z,27.92
2019-06-08T15:22:13.543Z,26.93
2019-06-08T15:24:44.310Z,25.91
2019-06-08T15:27:15.097Z,25.57
2019-06-08T15:29:47.574Z,25.48
2019-06-08T15:32:18.572Z,25.18
2019-06-08T15:34:50.945Z,25.51
2019-06-08T15:37:23.103Z,25.12
2019-06-08T15:39:54.001Z,24.72
2019-06-08T15:42:24.781Z,24.76
2019-06-08T15:44:59.417Z,24.45
2019-06-08T15:47:28.441Z,24.55
2019-06-08T15:49:59.222Z,23.89
2019-06-08T15:52:32.543Z,24.32
2019-06-08T15:55:03.893Z,24.50
2019-06-08T15:57:38.107Z,24.43
2019-06-08T16:00:10.201Z,24.48
2019-06-08T16:02:40.439Z,24.66
2019-06-08T16:05:11.348Z,24.51
2019-06-08T16:07:42.087Z,24.24
2019-06-08T16:10:13.059Z,24.73
2019-06-08T16:12:43.838Z,24.39
2019-06-08T16:15:14.723Z,24.10
2019-06-08T16:17:45.526Z,23.27
2019-06-08T16:20:16.293Z,23.27
2019-06-08T16:22:47.142Z,23.13
2019-06-08T16:25:17.905Z,23.31
2019-06-08T16:27:48.683Z,23.01
2019-06-08T16:30:19.555Z,23.44
2019-06-08T16:32:50.346Z,23.03
2019-06-08T16:35:21.109Z,23.59
2019-06-08T16:37:51.888Z,23.87
2019-06-08T16:40:22.650Z,23.43
2019-06-08T16:42:53.670Z,23.65
2019-06-08T16:45:24.527Z,23.38
2019-06-08T16:47:55.321Z,23.72
2019-06-08T16:50:26.086Z,22.91
2019-06-08T16:52:56.895Z,23.10
2019-06-08T16:55:27.749Z,23.62
2019-06-08T16:57:58.551Z,22.73
2019-06-08T17:00:31.260Z,22.55
2019-06-08T17:03:02.630Z,21.99
2019-06-08T17:05:33.420Z,22.21
2019-06-08T17:08:04.212Z,22.29
2019-06-08T17:10:34.987Z,22.21
2019-06-08T17:13:05.783Z,22.25
2019-06-08T17:15:36.553Z,22.10
2019-06-08T17:18:07.359Z,22.18
2019-06-08T17:20:38.441Z,22.44
2019-06-08T17:23:09.387Z,22.22
2019-06-08T17:25:40.894Z,22.44
2019-06-08T17:28:11.916Z,21.70
2019-06-08T17:30:42.681Z,22.54
2019-06-08T17:33:13.475Z,22.51
2019-06-08T17:35:45.255Z,22.20
2019-06-08T17:38:16.144Z,22.58
2019-06-08T17:40:46.920Z,22.02
2019-06-08T17:43:17.680Z,22.20
2019-06-08T17:45:48.459Z,22.31
2019-06-08T17:48:19.225Z,22.34
2019-06-08T17:50:50.001Z,22.08
2019-06-08T17:53:20.921Z,22.68
2019-06-08T17:55:51.704Z,22.31
2019-06-08T17:58:22.480Z,22.29
2019-06-08T18:00:53.257Z,22.24
2019-06-08T18:03:24.040Z,22.17
2019-06-08T18:05:54.821Z,22.17
2019-06-08T18:08:28.086Z,22.60
2019-06-08T18:10:58.277Z,21.84
2019-06-08T18:13:29.092Z,22.15
2019-06-08T18:15:59.862Z,22.11
2019-06-08T18:18:30.667Z,22.27
2019-06-08T18:21:01.439Z,22.03
2019-06-08T18:23:32.303Z,21.61
2019-06-08T18:26:03.089Z,21.50
2019-06-08T18:28:34.481Z,21.59
2019-06-08T18:31:07.384Z,21.60
2019-06-08T18:33:39.892Z,21.42
2019-06-08T18:36:10.673Z,21.42
2019-06-08T18:38:42.960Z,21.42
2019-06-08T18:41:14.129Z,20.98
2019-06-08T18:46:18.034Z,20.65
2019-06-08T18:48:49.652Z,20.46
2019-06-08T18:51:20.496Z,20.25
2019-06-08T18:54:07.480Z,20.16
2019-06-08T18:56:23.966Z,19.97
2019-06-08T18:58:54.732Z,19.88
2019-06-08T19:01:27.560Z,19.73
2019-06-08T19:03:58.217Z,19.50
2019-06-08T19:06:29.191Z,19.39
2019-06-08T19:08:59.952Z,19.30
2019-06-08T19:11:30.725Z,19.26
2019-06-08T19:14:03.055Z,19.21
2019-06-08T19:16:34.005Z,19.04
2019-06-08T19:19:07.294Z,19.00
2019-06-08T19:21:38.903Z,18.93
2019-06-08T19:24:10.065Z,18.85
2019-06-08T19:26:42.876Z,18.89
2019-06-08T19:29:13.532Z,18.92
2019-06-08T19:31:45.796Z,18.91
2019-06-08T19:34:18.197Z,18.89
2019-06-08T19:36:54.013Z,18.88
2019-06-08T19:39:21.839Z,18.77
2019-06-08T19:41:52.644Z,18.60
2019-06-08T19:44:23.407Z,18.33
2019-06-08T19:46:54.498Z,18.28
2019-06-08T19:49:28.005Z,18.25
2019-06-08T19:51:58.229Z,18.19
2019-06-08T19:54:29.055Z,18.08
2019-06-08T19:56:59.832Z,18.05
2019-06-08T19:59:30.616Z,18.35
2019-06-08T20:02:01.387Z,18.09
2019-06-08T20:04:32.156Z,17.88
2019-06-08T20:07:02.952Z,17.78
2019-06-08T20:09:33.720Z,17.78
2019-06-08T20:12:04.808Z,17.42
2019-06-08T20:14:37.431Z,17.63
2019-06-08T20:17:08.289Z,17.63
2019-06-08T20:19:39.075Z,17.48
2019-06-08T20:22:10.043Z,17.67
2019-06-08T20:24:42.421Z,17.43
2019-06-08T20:27:13.320Z,17.32
2019-06-08T20:29:45.114Z,17.24
2019-06-08T20:32:18.021Z,17.16
2019-06-08T20:34:49.697Z,17.06
2019-06-08T20:37:21.720Z,17.06
2019-06-08T20:40:02.998Z,17.06
2019-06-08T20:42:25.250Z,16.74
2019-06-08T20:44:57.743Z,16.74
2019-06-08T20:47:28.625Z,16.78
2019-06-08T20:49:59.384Z,16.75
2019-06-08T20:52:30.180Z,16.81
2019-06-08T20:55:00.955Z,16.83
2019-06-08T20:57:31.731Z,17.13
2019-06-08T21:00:09.190Z,16.93
2019-06-08T21:02:39.308Z,16.74
2019-06-08T21:05:10.573Z,16.67
2019-06-08T21:07:41.369Z,16.63
2019-06-08T21:10:12.233Z,16.63
2019-06-08T21:12:45.162Z,16.65
2019-06-08T21:15:17.735Z,16.67
2019-06-08T21:17:50.694Z,16.67
2019-06-08T21:20:21.163Z,16.51
2019-06-08T21:22:53.905Z,16.36
2019-06-08T21:25:24.602Z,16.46
2019-06-08T21:27:58.201Z,16.42
2019-06-08T21:30:28.597Z,16.45
2019-06-08T21:33:00.907Z,15.98
2019-06-08T21:35:31.724Z,15.66
2019-06-08T21:38:02.492Z,15.90
2019-06-08T21:40:33.256Z,15.95
2019-06-08T21:43:04.027Z,15.80
2019-06-08T21:45:34.987Z,15.74
2019-06-08T21:48:07.512Z,15.75
2019-06-08T21:50:38.442Z,15.57
2019-06-08T21:53:09.214Z,15.39
2019-06-08T21:55:40.013Z,15.73
2019-06-08T21:58:10.754Z,15.51
2019-06-08T22:00:43.637Z,15.40
2019-06-08T22:03:14.523Z,15.44
2019-06-08T22:05:47.294Z,15.38
2019-06-08T22:08:17.993Z,15.48
2019-06-08T22:10:51.052Z,15.35
2019-06-08T22:13:21.441Z,15.26
2019-06-08T22:15:53.218Z,15.23
2019-06-08T22:18:23.986Z,15.17
2019-06-08T22:20:55.973Z,15.24
2019-06-08T22:23:27.436Z,15.17
2019-06-08T22:25:59.827Z,15.14
2019-06-08T22:28:30.879Z,15.20
2019-06-08T22:31:01.859Z,15.11
2019-06-08T22:33:32.727Z,15.06
2019-06-08T22:36:03.492Z,14.89
2019-06-08T22:38:37.178Z,14.72
2019-06-08T22:41:08.031Z,14.78
2019-06-08T22:43:39.032Z,14.96
2019-06-08T22:46:09.802Z,14.92
2019-06-08T22:48:40.590Z,14.87
2019-06-08T22:51:11.363Z,14.87
2019-06-08T22:53:42.139Z,14.74
2019-06-08T22:56:12.916Z,14.87
2019-06-08T22:58:43.688Z,14.91
2019-06-08T23:01:14.474Z,14.92
2019-06-08T23:03:47.437Z,14.85
2019-06-08T23:06:17.941Z,14.89
2019-06-08T23:08:48.702Z,14.90
2019-06-08T23:11:19.463Z,14.86
2019-06-08T23:13:50.561Z,14.87
2019-06-08T23:16:21.325Z,14.82
2019-06-08T23:18:52.096Z,14.72
2019-06-08T23:21:22.864Z,14.69
2019-06-08T23:23:53.643Z,14.70
2019-06-08T23:26:24.413Z,14.63
2019-06-08T23:28:56.064Z,14.65
2019-06-08T23:31:29.052Z,15.17
2019-06-08T23:34:03.162Z,15.48
2019-06-08T23:36:50.385Z,14.95
2019-06-08T23:39:07.260Z,15.43
2019-06-08T23:41:38.194Z,15.01
2019-06-08T23:44:08.959Z,14.98
2019-06-08T23:46:39.728Z,15.12
2019-06-08T23:49:10.504Z,14.97
2019-06-08T23:51:41.268Z,14.79
2019-06-08T23:54:12.535Z,14.77
2019-06-08T23:56:43.417Z,14.74
2019-06-08T23:59:14.198Z,14.65
